sensor_id;sensor_type;location;lat;lon;timestamp;P1;durP1;ratioP1;P2;durP2;ratioP2
69047;SDS011;56119;50.118;8.642;2024-03-08T00:00:08;28.92;;;21.00;;
69047;SDS011;56119;50.118;8.642;2024-03-08T00:02:36;30.40;;;19.67;;
69047;SDS011;56119;50.118;8.642;2024-03-08T00:05:03;29.02;;;20.40;;
69047;SDS011;56119;50.118;8.642;2024-03-08T00:07:29;26.92;;;20.65;;
69047;SDS011;56119;50.118;8.642;2024-03-08T00:09:55;28.60;;;20.33;;
69047;SDS011;56119;50.118;8.642;2024-03-08T00:12:21;28.55;;;20.10;;
69047;SDS011;56119;50.118;8.642;2024-03-08T00:14:47;29.05;;;20.95;;
69047;SDS011;56119;50.118;8.642;2024-03-08T00:17:13;31.88;;;22.02;;
69047;SDS011;56119;50.118;8.642;2024-03-08T00:19:40;27.55;;;20.95;;
69047;SDS011;56119;50.118;8.642;2024-03-08T00:22:06;29.33;;;20.75;;
69047;SDS011;56119;50.118;8.642;2024-03-08T00:24:33;32.15;;;20.95;;
69047;SDS011;56119;50.118;8.642;2024-03-08T00:26:59;32.35;;;21.65;;
69047;SDS011;56119;50.118;8.642;2024-03-08T00:29:24;27.52;;;19.90;;
69047;SDS011;56119;50.118;8.642;2024-03-08T00:31:50;30.33;;;19.92;;
69047;SDS011;56119;50.118;8.642;2024-03-08T00:34:16;28.80;;;19.98;;
69047;SDS011;56119;50.118;8.642;2024-03-08T00:36:42;31.58;;;20.55;;
69047;SDS011;56119;50.118;8.642;2024-03-08T00:39:09;27.73;;;20.60;;
69047;SDS011;56119;50.118;8.642;2024-03-08T00:41:35;31.88;;;20.50;;
69047;SDS011;56119;50.118;8.642;2024-03-08T00:44:01;27.55;;;18.92;;
69047;SDS011;56119;50.118;8.642;2024-03-08T00:46:28;28.63;;;20.67;;
69047;SDS011;56119;50.118;8.642;2024-03-08T00:48:56;31.25;;;21.40;;
69047;SDS011;56119;50.118;8.642;2024-03-08T00:51:22;30.35;;;20.77;;
69047;SDS011;56119;50.118;8.642;2024-03-08T00:53:48;31.20;;;21.23;;
69047;SDS011;56119;50.118;8.642;2024-03-08T00:56:14;29.38;;;21.25;;
69047;SDS011;56119;50.118;8.642;2024-03-08T00:58:40;32.17;;;21.58;;
69047;SDS011;56119;50.118;8.642;2024-03-08T01:01:06;32.58;;;20.77;;
69047;SDS011;56119;50.118;8.642;2024-03-08T01:03:32;30.70;;;20.65;;
69047;SDS011;56119;50.118;8.642;2024-03-08T01:05:59;31.95;;;21.33;;
69047;SDS011;56119;50.118;8.642;2024-03-08T01:08:28;32.00;;;20.25;;
69047;SDS011;56119;50.118;8.642;2024-03-08T01:10:54;30.58;;;20.95;;
69047;SDS011;56119;50.118;8.642;2024-03-08T01:13:20;30.00;;;21.10;;
69047;SDS011;56119;50.118;8.642;2024-03-08T01:15:46;32.00;;;20.70;;
69047;SDS011;56119;50.118;8.642;2024-03-08T01:18:12;33.83;;;21.20;;
69047;SDS011;56119;50.118;8.642;2024-03-08T01:20:38;28.77;;;20.60;;
69047;SDS011;56119;50.118;8.642;2024-03-08T01:23:06;34.55;;;21.58;;
69047;SDS011;56119;50.118;8.642;2024-03-08T01:25:33;32.72;;;20.98;;
69047;SDS011;56119;50.118;8.642;2024-03-08T01:27:59;28.63;;;19.70;;
69047;SDS011;56119;50.118;8.642;2024-03-08T01:30:24;28.92;;;20.65;;
69047;SDS011;56119;50.118;8.642;2024-03-08T01:32:50;30.35;;;21.55;;
69047;SDS011;56119;50.118;8.642;2024-03-08T01:35:16;31.30;;;21.13;;
69047;SDS011;56119;50.118;8.642;2024-03-08T01:37:43;32.17;;;22.40;;
69047;SDS011;56119;50.118;8.642;2024-03-08T01:40:09;33.58;;;21.10;;
69047;SDS011;56119;50.118;8.642;2024-03-08T01:42:35;30.65;;;20.67;;
69047;SDS011;56119;50.118;8.642;2024-03-08T01:45:04;31.23;;;21.13;;
69047;SDS011;56119;50.118;8.642;2024-03-08T01:47:30;33.40;;;21.08;;
69047;SDS011;56119;50.118;8.642;2024-03-08T01:49:58;29.85;;;19.83;;
69047;SDS011;56119;50.118;8.642;2024-03-08T01:52:25;32.55;;;21.55;;
69047;SDS011;56119;50.118;8.642;2024-03-08T01:54:51;33.45;;;22.05;;
69047;SDS011;56119;50.118;8.642;2024-03-08T01:57:17;34.38;;;21.85;;
69047;SDS011;56119;50.118;8.642;2024-03-08T01:59:43;32.50;;;21.70;;
69047;SDS011;56119;50.118;8.642;2024-03-08T02:02:09;33.00;;;21.52;;
69047;SDS011;56119;50.118;8.642;2024-03-08T02:04:38;32.75;;;21.33;;
69047;SDS011;56119;50.118;8.642;2024-03-08T02:07:04;37.25;;;21.90;;
69047;SDS011;56119;50.118;8.642;2024-03-08T02:09:30;30.50;;;20.90;;
69047;SDS011;56119;50.118;8.642;2024-03-08T02:11:57;31.83;;;21.90;;
69047;SDS011;56119;50.118;8.642;2024-03-08T02:14:23;33.72;;;23.02;;
69047;SDS011;56119;50.118;8.642;2024-03-08T02:16:49;33.28;;;21.58;;
69047;SDS011;56119;50.118;8.642;2024-03-08T02:19:16;34.03;;;21.90;;
69047;SDS011;56119;50.118;8.642;2024-03-08T02:21:42;33.33;;;21.45;;
69047;SDS011;56119;50.118;8.642;2024-03-08T02:24:11;38.08;;;22.42;;
69047;SDS011;56119;50.118;8.642;2024-03-08T02:26:37;32.47;;;21.40;;
69047;SDS011;56119;50.118;8.642;2024-03-08T02:29:04;31.35;;;21.52;;
69047;SDS011;56119;50.118;8.642;2024-03-08T02:31:30;32.17;;;21.60;;
69047;SDS011;56119;50.118;8.642;2024-03-08T02:33:56;36.65;;;22.67;;
69047;SDS011;56119;50.118;8.642;2024-03-08T02:36:22;35.67;;;21.58;;
69047;SDS011;56119;50.118;8.642;2024-03-08T02:38:48;32.97;;;22.33;;
69047;SDS011;56119;50.118;8.642;2024-03-08T02:41:14;35.45;;;22.83;;
69047;SDS011;56119;50.118;8.642;2024-03-08T02:43:40;33.88;;;21.80;;
69047;SDS011;56119;50.118;8.642;2024-03-08T02:46:06;35.10;;;22.80;;
69047;SDS011;56119;50.118;8.642;2024-03-08T02:48:32;35.15;;;23.70;;
69047;SDS011;56119;50.118;8.642;2024-03-08T02:50:58;36.35;;;23.60;;
69047;SDS011;56119;50.118;8.642;2024-03-08T02:53:24;34.80;;;22.33;;
69047;SDS011;56119;50.118;8.642;2024-03-08T02:55:50;33.38;;;23.40;;
69047;SDS011;56119;50.118;8.642;2024-03-08T02:58:16;35.13;;;22.85;;
69047;SDS011;56119;50.118;8.642;2024-03-08T03:00:42;34.13;;;23.05;;
69047;SDS011;56119;50.118;8.642;2024-03-08T03:03:09;36.75;;;24.02;;
69047;SDS011;56119;50.118;8.642;2024-03-08T03:05:35;37.90;;;23.25;;
69047;SDS011;56119;50.118;8.642;2024-03-08T03:08:01;34.95;;;23.80;;
69047;SDS011;56119;50.118;8.642;2024-03-08T03:10:29;37.03;;;23.10;;
69047;SDS011;56119;50.118;8.642;2024-03-08T03:12:55;36.13;;;24.10;;
69047;SDS011;56119;50.118;8.642;2024-03-08T03:15:21;33.00;;;22.58;;
69047;SDS011;56119;50.118;8.642;2024-03-08T03:17:48;36.83;;;23.50;;
69047;SDS011;56119;50.118;8.642;2024-03-08T03:20:15;33.97;;;23.52;;
69047;SDS011;56119;50.118;8.642;2024-03-08T03:22:47;34.30;;;22.75;;
69047;SDS011;56119;50.118;8.642;2024-03-08T03:25:16;37.53;;;22.80;;
69047;SDS011;56119;50.118;8.642;2024-03-08T03:27:48;39.97;;;24.80;;
69047;SDS011;56119;50.118;8.642;2024-03-08T03:30:14;35.15;;;23.63;;
69047;SDS011;56119;50.118;8.642;2024-03-08T03:32:49;37.00;;;24.17;;
69047;SDS011;56119;50.118;8.642;2024-03-08T03:35:16;33.67;;;23.60;;
69047;SDS011;56119;50.118;8.642;2024-03-08T03:37:42;36.90;;;23.65;;
69047;SDS011;56119;50.118;8.642;2024-03-08T03:40:16;35.42;;;23.75;;
69047;SDS011;56119;50.118;8.642;2024-03-08T03:42:43;36.45;;;24.55;;
69047;SDS011;56119;50.118;8.642;2024-03-08T03:45:10;35.70;;;23.20;;
69047;SDS011;56119;50.118;8.642;2024-03-08T03:47:36;36.33;;;23.95;;
69047;SDS011;56119;50.118;8.642;2024-03-08T03:50:06;38.20;;;24.08;;
69047;SDS011;56119;50.118;8.642;2024-03-08T03:52:32;35.38;;;23.75;;
69047;SDS011;56119;50.118;8.642;2024-03-08T03:54:58;39.17;;;24.35;;
69047;SDS011;56119;50.118;8.642;2024-03-08T03:57:24;36.53;;;24.52;;
69047;SDS011;56119;50.118;8.642;2024-03-08T03:59:50;37.10;;;23.88;;
69047;SDS011;56119;50.118;8.642;2024-03-08T04:02:16;36.10;;;23.60;;
69047;SDS011;56119;50.118;8.642;2024-03-08T04:04:42;35.72;;;23.65;;
69047;SDS011;56119;50.118;8.642;2024-03-08T04:07:10;38.75;;;24.00;;
69047;SDS011;56119;50.118;8.642;2024-03-08T04:09:36;37.53;;;24.25;;
69047;SDS011;56119;50.118;8.642;2024-03-08T04:12:02;36.65;;;24.35;;
69047;SDS011;56119;50.118;8.642;2024-03-08T04:14:28;39.33;;;24.83;;
69047;SDS011;56119;50.118;8.642;2024-03-08T04:16:54;37.80;;;25.15;;
69047;SDS011;56119;50.118;8.642;2024-03-08T04:19:20;37.78;;;24.08;;
69047;SDS011;56119;50.118;8.642;2024-03-08T04:21:46;35.90;;;23.83;;
69047;SDS011;56119;50.118;8.642;2024-03-08T04:24:12;38.65;;;25.23;;
69047;SDS011;56119;50.118;8.642;2024-03-08T04:26:38;42.75;;;25.27;;
69047;SDS011;56119;50.118;8.642;2024-03-08T04:29:04;40.20;;;24.80;;
69047;SDS011;56119;50.118;8.642;2024-03-08T04:31:30;37.47;;;24.77;;
69047;SDS011;56119;50.118;8.642;2024-03-08T04:33:56;41.25;;;25.63;;
69047;SDS011;56119;50.118;8.642;2024-03-08T04:36:22;36.58;;;24.60;;
69047;SDS011;56119;50.118;8.642;2024-03-08T04:38:49;40.22;;;25.52;;
69047;SDS011;56119;50.118;8.642;2024-03-08T04:41:16;38.30;;;25.02;;
69047;SDS011;56119;50.118;8.642;2024-03-08T04:43:43;38.78;;;25.33;;
69047;SDS011;56119;50.118;8.642;2024-03-08T04:46:09;38.47;;;24.80;;
69047;SDS011;56119;50.118;8.642;2024-03-08T04:48:35;40.33;;;25.63;;
69047;SDS011;56119;50.118;8.642;2024-03-08T04:51:02;41.17;;;26.38;;
69047;SDS011;56119;50.118;8.642;2024-03-08T04:53:28;44.60;;;25.98;;
69047;SDS011;56119;50.118;8.642;2024-03-08T04:55:55;41.08;;;26.27;;
69047;SDS011;56119;50.118;8.642;2024-03-08T04:58:23;42.90;;;25.80;;
69047;SDS011;56119;50.118;8.642;2024-03-08T05:00:48;39.50;;;25.70;;
69047;SDS011;56119;50.118;8.642;2024-03-08T05:03:15;40.08;;;25.40;;
69047;SDS011;56119;50.118;8.642;2024-03-08T05:05:41;43.83;;;26.93;;
69047;SDS011;56119;50.118;8.642;2024-03-08T05:08:07;41.55;;;25.90;;
69047;SDS011;56119;50.118;8.642;2024-03-08T05:10:33;41.55;;;26.58;;
69047;SDS011;56119;50.118;8.642;2024-03-08T05:12:59;44.03;;;26.97;;
69047;SDS011;56119;50.118;8.642;2024-03-08T05:15:25;39.10;;;24.40;;
69047;SDS011;56119;50.118;8.642;2024-03-08T05:17:51;40.83;;;26.33;;
69047;SDS011;56119;50.118;8.642;2024-03-08T05:20:17;36.67;;;25.00;;
69047;SDS011;56119;50.118;8.642;2024-03-08T05:22:44;37.70;;;25.33;;
69047;SDS011;56119;50.118;8.642;2024-03-08T05:25:11;40.92;;;25.00;;
69047;SDS011;56119;50.118;8.642;2024-03-08T05:27:39;40.95;;;26.08;;
69047;SDS011;56119;50.118;8.642;2024-03-08T05:30:05;45.07;;;25.90;;
69047;SDS011;56119;50.118;8.642;2024-03-08T05:32:31;41.27;;;27.00;;
69047;SDS011;56119;50.118;8.642;2024-03-08T05:34:57;40.65;;;26.23;;
69047;SDS011;56119;50.118;8.642;2024-03-08T05:37:23;45.53;;;27.00;;
69047;SDS011;56119;50.118;8.642;2024-03-08T05:39:49;41.50;;;26.97;;
69047;SDS011;56119;50.118;8.642;2024-03-08T05:42:15;41.57;;;26.80;;
69047;SDS011;56119;50.118;8.642;2024-03-08T05:44:41;42.53;;;26.17;;
69047;SDS011;56119;50.118;8.642;2024-03-08T05:47:08;40.17;;;25.70;;
69047;SDS011;56119;50.118;8.642;2024-03-08T05:49:34;45.47;;;27.10;;
69047;SDS011;56119;50.118;8.642;2024-03-08T05:52:00;42.23;;;26.63;;
69047;SDS011;56119;50.118;8.642;2024-03-08T05:54:26;39.67;;;25.33;;
69047;SDS011;56119;50.118;8.642;2024-03-08T05:56:52;41.67;;;26.23;;
69047;SDS011;56119;50.118;8.642;2024-03-08T05:59:19;41.10;;;26.10;;
69047;SDS011;56119;50.118;8.642;2024-03-08T06:01:45;41.83;;;25.77;;
69047;SDS011;56119;50.118;8.642;2024-03-08T06:04:12;43.70;;;27.33;;
69047;SDS011;56119;50.118;8.642;2024-03-08T06:06:39;49.50;;;28.00;;
69047;SDS011;56119;50.118;8.642;2024-03-08T06:09:05;43.83;;;26.87;;
69047;SDS011;56119;50.118;8.642;2024-03-08T06:11:36;48.43;;;30.27;;
69047;SDS011;56119;50.118;8.642;2024-03-08T06:14:03;44.27;;;27.57;;
69047;SDS011;56119;50.118;8.642;2024-03-08T06:16:29;45.13;;;27.97;;
69047;SDS011;56119;50.118;8.642;2024-03-08T06:18:55;44.13;;;26.83;;
69047;SDS011;56119;50.118;8.642;2024-03-08T06:21:22;42.60;;;26.13;;
69047;SDS011;56119;50.118;8.642;2024-03-08T06:23:51;42.67;;;27.60;;
69047;SDS011;56119;50.118;8.642;2024-03-08T06:26:16;45.17;;;28.33;;
69047;SDS011;56119;50.118;8.642;2024-03-08T06:28:43;46.03;;;26.97;;
69047;SDS011;56119;50.118;8.642;2024-03-08T06:31:09;46.47;;;28.20;;
69047;SDS011;56119;50.118;8.642;2024-03-08T06:33:36;44.50;;;27.50;;
69047;SDS011;56119;50.118;8.642;2024-03-08T06:36:02;45.00;;;28.20;;
69047;SDS011;56119;50.118;8.642;2024-03-08T06:38:28;46.73;;;27.87;;
69047;SDS011;56119;50.118;8.642;2024-03-08T06:40:55;42.20;;;26.07;;
69047;SDS011;56119;50.118;8.642;2024-03-08T06:43:21;42.83;;;26.87;;
69047;SDS011;56119;50.118;8.642;2024-03-08T06:45:50;46.03;;;27.67;;
69047;SDS011;56119;50.118;8.642;2024-03-08T06:48:17;40.40;;;25.90;;
69047;SDS011;56119;50.118;8.642;2024-03-08T06:50:44;44.80;;;27.10;;
69047;SDS011;56119;50.118;8.642;2024-03-08T06:53:10;45.83;;;27.70;;
69047;SDS011;56119;50.118;8.642;2024-03-08T06:55:36;45.47;;;28.23;;
69047;SDS011;56119;50.118;8.642;2024-03-08T06:58:02;44.47;;;27.50;;
69047;SDS011;56119;50.118;8.642;2024-03-08T07:00:28;46.60;;;28.10;;
69047;SDS011;56119;50.118;8.642;2024-03-08T07:02:55;45.87;;;27.13;;
69047;SDS011;56119;50.118;8.642;2024-03-08T07:05:22;42.67;;;26.10;;
69047;SDS011;56119;50.118;8.642;2024-03-08T07:07:49;41.38;;;26.95;;
69047;SDS011;56119;50.118;8.642;2024-03-08T07:10:16;42.40;;;27.27;;
69047;SDS011;56119;50.118;8.642;2024-03-08T07:12:42;41.65;;;26.42;;
69047;SDS011;56119;50.118;8.642;2024-03-08T07:15:08;45.63;;;27.67;;
69047;SDS011;56119;50.118;8.642;2024-03-08T07:17:38;44.60;;;28.10;;
69047;SDS011;56119;50.118;8.642;2024-03-08T07:20:05;46.20;;;26.83;;
69047;SDS011;56119;50.118;8.642;2024-03-08T07:22:36;41.07;;;27.00;;
69047;SDS011;56119;50.118;8.642;2024-03-08T07:25:02;42.15;;;26.00;;
69047;SDS011;56119;50.118;8.642;2024-03-08T07:27:49;43.60;;;27.73;;
69047;SDS011;56119;50.118;8.642;2024-03-08T07:30:16;46.93;;;28.10;;
69047;SDS011;56119;50.118;8.642;2024-03-08T07:33:02;41.33;;;25.73;;
69047;SDS011;56119;50.118;8.642;2024-03-08T07:35:28;46.78;;;29.02;;
69047;SDS011;56119;50.118;8.642;2024-03-08T07:37:54;42.95;;;25.77;;
69047;SDS011;56119;50.118;8.642;2024-03-08T07:40:21;43.20;;;27.55;;
69047;SDS011;56119;50.118;8.642;2024-03-08T07:42:48;44.20;;;26.45;;
69047;SDS011;56119;50.118;8.642;2024-03-08T07:45:14;41.20;;;27.00;;
69047;SDS011;56119;50.118;8.642;2024-03-08T07:47:41;43.88;;;31.95;;
69047;SDS011;56119;50.118;8.642;2024-03-08T07:50:07;44.20;;;28.75;;
69047;SDS011;56119;50.118;8.642;2024-03-08T07:52:33;43.92;;;29.67;;
69047;SDS011;56119;50.118;8.642;2024-03-08T07:54:59;45.25;;;27.75;;
69047;SDS011;56119;50.118;8.642;2024-03-08T07:57:25;41.85;;;27.48;;
69047;SDS011;56119;50.118;8.642;2024-03-08T07:59:51;41.28;;;27.00;;
69047;SDS011;56119;50.118;8.642;2024-03-08T08:02:17;43.00;;;26.75;;
69047;SDS011;56119;50.118;8.642;2024-03-08T08:04:43;37.58;;;26.35;;
69047;SDS011;56119;50.118;8.642;2024-03-08T08:07:12;38.10;;;25.85;;
69047;SDS011;56119;50.118;8.642;2024-03-08T08:09:39;40.30;;;26.15;;
69047;SDS011;56119;50.118;8.642;2024-03-08T08:12:07;40.38;;;26.80;;
69047;SDS011;56119;50.118;8.642;2024-03-08T08:14:36;39.17;;;27.08;;
69047;SDS011;56119;50.118;8.642;2024-03-08T08:17:02;39.65;;;26.65;;
69047;SDS011;56119;50.118;8.642;2024-03-08T08:19:29;38.10;;;25.77;;
69047;SDS011;56119;50.118;8.642;2024-03-08T08:21:56;39.38;;;26.73;;
69047;SDS011;56119;50.118;8.642;2024-03-08T08:24:23;38.08;;;25.67;;
69047;SDS011;56119;50.118;8.642;2024-03-08T08:26:49;39.28;;;26.38;;
69047;SDS011;56119;50.118;8.642;2024-03-08T08:29:15;41.00;;;26.58;;
69047;SDS011;56119;50.118;8.642;2024-03-08T08:31:41;40.15;;;25.05;;
69047;SDS011;56119;50.118;8.642;2024-03-08T08:34:09;38.17;;;27.30;;
69047;SDS011;56119;50.118;8.642;2024-03-08T08:36:36;39.72;;;26.77;;
69047;SDS011;56119;50.118;8.642;2024-03-08T08:39:02;42.85;;;26.45;;
69047;SDS011;56119;50.118;8.642;2024-03-08T08:41:28;37.85;;;25.73;;
69047;SDS011;56119;50.118;8.642;2024-03-08T08:43:54;40.50;;;25.65;;
69047;SDS011;56119;50.118;8.642;2024-03-08T08:46:20;41.72;;;26.30;;
69047;SDS011;56119;50.118;8.642;2024-03-08T08:48:46;39.25;;;25.42;;
69047;SDS011;56119;50.118;8.642;2024-03-08T08:51:12;40.70;;;27.17;;
69047;SDS011;56119;50.118;8.642;2024-03-08T08:53:39;38.80;;;26.90;;
69047;SDS011;56119;50.118;8.642;2024-03-08T08:56:11;39.75;;;24.85;;
69047;SDS011;56119;50.118;8.642;2024-03-08T08:58:41;40.45;;;26.83;;
69047;SDS011;56119;50.118;8.642;2024-03-08T09:01:07;37.13;;;25.45;;
69047;SDS011;56119;50.118;8.642;2024-03-08T09:03:34;41.10;;;26.10;;
69047;SDS011;56119;50.118;8.642;2024-03-08T09:06:02;39.10;;;26.30;;
69047;SDS011;56119;50.118;8.642;2024-03-08T09:08:29;40.45;;;25.45;;
69047;SDS011;56119;50.118;8.642;2024-03-08T09:10:55;39.38;;;25.88;;
69047;SDS011;56119;50.118;8.642;2024-03-08T09:13:21;39.33;;;25.02;;
69047;SDS011;56119;50.118;8.642;2024-03-08T09:15:47;33.92;;;23.70;;
69047;SDS011;56119;50.118;8.642;2024-03-08T09:18:14;37.70;;;25.13;;
69047;SDS011;56119;50.118;8.642;2024-03-08T09:20:39;36.30;;;25.23;;
69047;SDS011;56119;50.118;8.642;2024-03-08T09:23:06;39.70;;;24.30;;
69047;SDS011;56119;50.118;8.642;2024-03-08T09:25:33;35.40;;;24.05;;
69047;SDS011;56119;50.118;8.642;2024-03-08T09:27:59;34.85;;;23.33;;
69047;SDS011;56119;50.118;8.642;2024-03-08T09:30:25;33.75;;;21.58;;
69047;SDS011;56119;50.118;8.642;2024-03-08T09:32:51;32.78;;;22.58;;
69047;SDS011;56119;50.118;8.642;2024-03-08T09:35:17;36.40;;;22.88;;
69047;SDS011;56119;50.118;8.642;2024-03-08T09:37:43;34.63;;;22.08;;
69047;SDS011;56119;50.118;8.642;2024-03-08T09:40:09;30.08;;;21.50;;
69047;SDS011;56119;50.118;8.642;2024-03-08T09:42:35;30.95;;;20.20;;
69047;SDS011;56119;50.118;8.642;2024-03-08T09:45:10;30.83;;;20.20;;
69047;SDS011;56119;50.118;8.642;2024-03-08T09:47:40;30.13;;;20.77;;
69047;SDS011;56119;50.118;8.642;2024-03-08T09:50:10;30.38;;;21.13;;
69047;SDS011;56119;50.118;8.642;2024-03-08T09:52:40;29.75;;;19.92;;
69047;SDS011;56119;50.118;8.642;2024-03-08T09:55:06;29.50;;;20.08;;
69047;SDS011;56119;50.118;8.642;2024-03-08T09:57:33;27.13;;;18.75;;
69047;SDS011;56119;50.118;8.642;2024-03-08T09:59:59;28.60;;;19.77;;
69047;SDS011;56119;50.118;8.642;2024-03-08T10:02:25;28.02;;;19.42;;
69047;SDS011;56119;50.118;8.642;2024-03-08T10:04:51;28.92;;;19.20;;
69047;SDS011;56119;50.118;8.642;2024-03-08T10:07:20;27.10;;;19.90;;
69047;SDS011;56119;50.118;8.642;2024-03-08T10:09:46;27.65;;;18.88;;
69047;SDS011;56119;50.118;8.642;2024-03-08T10:12:16;29.75;;;20.20;;
69047;SDS011;56119;50.118;8.642;2024-03-08T10:14:42;30.52;;;20.27;;
69047;SDS011;56119;50.118;8.642;2024-03-08T10:17:08;25.45;;;18.67;;
69047;SDS011;56119;50.118;8.642;2024-03-08T10:19:35;27.65;;;18.45;;
69047;SDS011;56119;50.118;8.642;2024-03-08T10:22:01;25.35;;;18.67;;
69047;SDS011;56119;50.118;8.642;2024-03-08T10:24:29;26.80;;;18.45;;
69047;SDS011;56119;50.118;8.642;2024-03-08T10:26:59;24.38;;;18.35;;
69047;SDS011;56119;50.118;8.642;2024-03-08T10:29:26;23.80;;;17.55;;
69047;SDS011;56119;50.118;8.642;2024-03-08T10:31:51;28.52;;;20.42;;
69047;SDS011;56119;50.118;8.642;2024-03-08T10:34:17;26.50;;;18.30;;
69047;SDS011;56119;50.118;8.642;2024-03-08T10:36:44;28.67;;;19.77;;
69047;SDS011;56119;50.118;8.642;2024-03-08T10:39:19;27.77;;;17.42;;
69047;SDS011;56119;50.118;8.642;2024-03-08T10:41:48;25.95;;;18.20;;
69047;SDS011;56119;50.118;8.642;2024-03-08T10:44:24;24.55;;;17.45;;
69047;SDS011;56119;50.118;8.642;2024-03-08T10:47:02;24.95;;;17.27;;
69047;SDS011;56119;50.118;8.642;2024-03-08T10:49:54;24.40;;;17.70;;
69047;SDS011;56119;50.118;8.642;2024-03-08T10:52:18;26.52;;;18.42;;
69047;SDS011;56119;50.118;8.642;2024-03-08T10:54:45;25.52;;;17.70;;
69047;SDS011;56119;50.118;8.642;2024-03-08T10:57:13;26.17;;;18.55;;
69047;SDS011;56119;50.118;8.642;2024-03-08T10:59:40;24.27;;;17.77;;
69047;SDS011;56119;50.118;8.642;2024-03-08T11:02:08;25.95;;;17.80;;
69047;SDS011;56119;50.118;8.642;2024-03-08T11:04:36;25.98;;;17.83;;
69047;SDS011;56119;50.118;8.642;2024-03-08T11:07:02;24.38;;;17.83;;
69047;SDS011;56119;50.118;8.642;2024-03-08T11:09:32;24.95;;;17.70;;
69047;SDS011;56119;50.118;8.642;2024-03-08T11:14:44;23.10;;;16.98;;
69047;SDS011;56119;50.118;8.642;2024-03-08T11:17:12;26.00;;;17.58;;
69047;SDS011;56119;50.118;8.642;2024-03-08T11:19:44;22.75;;;16.95;;
69047;SDS011;56119;50.118;8.642;2024-03-08T11:22:13;23.15;;;16.42;;
69047;SDS011;56119;50.118;8.642;2024-03-08T11:24:48;22.15;;;16.10;;
69047;SDS011;56119;50.118;8.642;2024-03-08T11:27:14;21.00;;;15.63;;
69047;SDS011;56119;50.118;8.642;2024-03-08T11:29:40;23.02;;;16.92;;
69047;SDS011;56119;50.118;8.642;2024-03-08T11:32:16;25.92;;;16.42;;
69047;SDS011;56119;50.118;8.642;2024-03-08T11:34:43;22.42;;;15.60;;
69047;SDS011;56119;50.118;8.642;2024-03-08T11:37:14;20.67;;;15.15;;
69047;SDS011;56119;50.118;8.642;2024-03-08T11:39:45;19.48;;;15.27;;
69047;SDS011;56119;50.118;8.642;2024-03-08T11:42:13;20.17;;;14.88;;
69047;SDS011;56119;50.118;8.642;2024-03-08T11:44:40;23.73;;;16.02;;
69047;SDS011;56119;50.118;8.642;2024-03-08T11:47:09;21.38;;;15.00;;
69047;SDS011;56119;50.118;8.642;2024-03-08T11:49:36;22.25;;;15.50;;
69047;SDS011;56119;50.118;8.642;2024-03-08T11:52:02;26.48;;;17.52;;
69047;SDS011;56119;50.118;8.642;2024-03-08T11:54:28;22.88;;;15.63;;
69047;SDS011;56119;50.118;8.642;2024-03-08T11:56:57;23.13;;;15.88;;
69047;SDS011;56119;50.118;8.642;2024-03-08T11:59:26;23.48;;;16.23;;
69047;SDS011;56119;50.118;8.642;2024-03-08T12:02:02;20.60;;;16.30;;
69047;SDS011;56119;50.118;8.642;2024-03-08T12:04:28;21.95;;;15.73;;
69047;SDS011;56119;50.118;8.642;2024-03-08T12:06:56;21.55;;;16.33;;
69047;SDS011;56119;50.118;8.642;2024-03-08T12:09:22;22.50;;;16.05;;
69047;SDS011;56119;50.118;8.642;2024-03-08T12:11:48;19.92;;;15.43;;
69047;SDS011;56119;50.118;8.642;2024-03-08T12:14:15;21.35;;;16.45;;
69047;SDS011;56119;50.118;8.642;2024-03-08T12:16:42;22.42;;;15.40;;
69047;SDS011;56119;50.118;8.642;2024-03-08T12:19:08;21.02;;;16.17;;
69047;SDS011;56119;50.118;8.642;2024-03-08T12:21:35;24.52;;;16.42;;
69047;SDS011;56119;50.118;8.642;2024-03-08T12:24:05;22.92;;;16.48;;
69047;SDS011;56119;50.118;8.642;2024-03-08T12:26:34;23.83;;;16.55;;
69047;SDS011;56119;50.118;8.642;2024-03-08T12:31:45;24.58;;;17.13;;
69047;SDS011;56119;50.118;8.642;2024-03-08T12:34:12;23.00;;;16.83;;
69047;SDS011;56119;50.118;8.642;2024-03-08T12:36:44;22.58;;;16.92;;
69047;SDS011;56119;50.118;8.642;2024-03-08T12:39:12;24.05;;;17.02;;
69047;SDS011;56119;50.118;8.642;2024-03-08T12:41:40;24.77;;;16.83;;
69047;SDS011;56119;50.118;8.642;2024-03-08T12:44:06;19.58;;;15.30;;
69047;SDS011;56119;50.118;8.642;2024-03-08T12:46:35;22.13;;;16.23;;
69047;SDS011;56119;50.118;8.642;2024-03-08T12:49:01;23.27;;;16.80;;
69047;SDS011;56119;50.118;8.642;2024-03-08T12:51:29;23.20;;;16.88;;
69047;SDS011;56119;50.118;8.642;2024-03-08T12:53:55;25.15;;;17.25;;
69047;SDS011;56119;50.118;8.642;2024-03-08T12:56:31;24.50;;;17.20;;
69047;SDS011;56119;50.118;8.642;2024-03-08T12:58:58;23.77;;;16.50;;
69047;SDS011;56119;50.118;8.642;2024-03-08T13:01:24;22.60;;;17.00;;
69047;SDS011;56119;50.118;8.642;2024-03-08T13:03:51;26.52;;;17.77;;
69047;SDS011;56119;50.118;8.642;2024-03-08T13:06:17;21.15;;;16.60;;
69047;SDS011;56119;50.118;8.642;2024-03-08T13:08:46;21.48;;;16.08;;
69047;SDS011;56119;50.118;8.642;2024-03-08T13:11:13;23.80;;;17.48;;
69047;SDS011;56119;50.118;8.642;2024-03-08T13:13:39;24.75;;;17.92;;
69047;SDS011;56119;50.118;8.642;2024-03-08T13:16:08;21.13;;;15.93;;
69047;SDS011;56119;50.118;8.642;2024-03-08T13:18:35;24.77;;;16.42;;
69047;SDS011;56119;50.118;8.642;2024-03-08T13:21:01;20.90;;;15.90;;
69047;SDS011;56119;50.118;8.642;2024-03-08T13:23:40;23.33;;;16.63;;
69047;SDS011;56119;50.118;8.642;2024-03-08T13:26:06;25.55;;;17.65;;
69047;SDS011;56119;50.118;8.642;2024-03-08T13:28:33;23.23;;;16.42;;
69047;SDS011;56119;50.118;8.642;2024-03-08T13:31:03;23.08;;;16.50;;
69047;SDS011;56119;50.118;8.642;2024-03-08T13:33:31;22.23;;;16.55;;
69047;SDS011;56119;50.118;8.642;2024-03-08T13:36:00;20.80;;;16.02;;
69047;SDS011;56119;50.118;8.642;2024-03-08T13:38:26;23.88;;;16.95;;
69047;SDS011;56119;50.118;8.642;2024-03-08T13:40:52;25.80;;;17.40;;
69047;SDS011;56119;50.118;8.642;2024-03-08T13:43:18;23.60;;;16.80;;
69047;SDS011;56119;50.118;8.642;2024-03-08T13:45:44;21.05;;;15.68;;
69047;SDS011;56119;50.118;8.642;2024-03-08T13:48:11;23.15;;;16.20;;
69047;SDS011;56119;50.118;8.642;2024-03-08T13:50:38;25.23;;;16.98;;
69047;SDS011;56119;50.118;8.642;2024-03-08T13:53:04;21.58;;;16.45;;
69047;SDS011;56119;50.118;8.642;2024-03-08T13:55:30;23.42;;;16.10;;
69047;SDS011;56119;50.118;8.642;2024-03-08T13:57:58;22.60;;;16.10;;
69047;SDS011;56119;50.118;8.642;2024-03-08T14:00:25;22.95;;;16.88;;
69047;SDS011;56119;50.118;8.642;2024-03-08T14:02:57;25.02;;;16.48;;
69047;SDS011;56119;50.118;8.642;2024-03-08T14:05:24;24.58;;;16.48;;
69047;SDS011;56119;50.118;8.642;2024-03-08T14:07:50;23.35;;;16.55;;
69047;SDS011;56119;50.118;8.642;2024-03-08T14:10:19;20.00;;;15.80;;
69047;SDS011;56119;50.118;8.642;2024-03-08T14:12:47;21.67;;;15.68;;
69047;SDS011;56119;50.118;8.642;2024-03-08T14:15:15;22.95;;;15.80;;
69047;SDS011;56119;50.118;8.642;2024-03-08T14:17:41;23.40;;;16.58;;
69047;SDS011;56119;50.118;8.642;2024-03-08T14:20:08;19.25;;;14.93;;
69047;SDS011;56119;50.118;8.642;2024-03-08T14:22:34;23.02;;;16.50;;
69047;SDS011;56119;50.118;8.642;2024-03-08T14:25:00;21.67;;;16.20;;